Terminal Aerodrome Forecast
Issued by NWS

Home | Current Version | Previous Version | Text Only | Print | Product List | Glossary On
Versions: 1 2 3 4 5 6 7 8 9 10 11 12 13 14 15 16
039
FTUS45 KTFX 021743
TAFGTF
TAF
KGTF 021743Z 0218/0318 21011G20KT P6SM SKC
     FM022000 22017G27KT P6SM SCT180
     FM030200 22017G27KT P6SM SCT090 BKN140=

USA.gov is the U.S. government's official web portal to all federal, state and local government web resources and services.